This is the latest recevied weather packets stored in our database for station/object OM6ACB-6. If no packets are shown the sender has not sent any weather packets the latest 10 day(s).
| Time | Temp. | Humidity | Pressure | Rain* | Wind** | Luminosity | Snow |
|---|---|---|---|---|---|---|---|
| 1788350043 | 23.33° C | 21% | 1025.6 hPa | 0 mm | - | - | - |
| 1788349443 | 23.33° C | 21% | 1025.7 hPa | 0 mm | - | - | - |
| 1788348843 | 24.44° C | 20% | 1025.9 hPa | 0 mm | - | - | - |
| 1788348243 | 25° C | 20% | 1026.2 hPa | 0 mm | - | - | - |
| 1788347642 | 24.44° C | 20% | 1025.9 hPa | 0 mm | - | - | - |
| 1788347042 | 23.33° C | 21% | 1026 hPa | 0 mm | - | - | - |
| 1788346442 | 23.89° C | 21% | 1026.4 hPa | 0 mm | - | - | - |
| 1788345841 | 23.33° C | 21% | 1026.4 hPa | 0 mm | - | - | - |
| 1788345241 | 23.89° C | 21% | 1026.6 hPa | 0 mm | - | - | - |
| 1788344641 | 22.22° C | 21% | 1026.3 hPa | 0 mm | - | - | - |
| 1788344041 | 23.33° C | 21% | 1026.7 hPa | 0 mm | - | - | - |
| 1788343440 | 21.67° C | 22% | 1026.5 hPa | 0 mm | - | - | - |
| 1788342840 | 20.56° C | 22% | 1026.4 hPa | 0 mm | - | - | - |
| 1788342240 | 20° C | 23% | 1026.5 hPa | 0 mm | - | - | - |
| 1788341639 | 20.56° C | 22% | 1026.5 hPa | 0 mm | - | - | - |
| 1788341039 | 20.56° C | 22% | 1026.6 hPa | 0 mm | - | - | - |
| 1788340439 | 18.89° C | 23% | 1026.4 hPa | 0 mm | - | - | - |
| 1788339838 | 18.89° C | 23% | 1026.5 hPa | 0 mm | - | - | - |
| 1788339238 | 18.33° C | 23% | 1026.4 hPa | 0 mm | - | - | - |
| 1788338638 | 21.67° C | 22% | 1026.9 hPa | 0 mm | - | - | - |
| 1788338037 | 19.44° C | 23% | 1026.9 hPa | 0 mm | - | - | - |
| 1788337437 | 22.22° C | 22% | 1026.6 hPa | 0 mm | - | - | - |
| 1788336837 | 18.33° C | 23% | 1026.5 hPa | 0 mm | - | - | - |
| 1788336237 | 20° C | 22% | 1026.8 hPa | 0 mm | - | - | - |
| 1788335636 | 18.89° C | 23% | 1026.6 hPa | 0 mm | - | - | - |
* Rain latest hour (hover to see other rain measurements)
** Current wind speed in m/s (hover to see current wind gust speed)